createdAt,value
2019-02-24T00:01:06.589Z,7.30
2019-02-24T00:03:32.921Z,7.20
2019-02-24T00:05:59.251Z,7.20
2019-02-24T00:08:25.626Z,7.20
2019-02-24T00:10:52.237Z,7.20
2019-02-24T00:13:18.548Z,7.20
2019-02-24T00:15:44.879Z,7.20
2019-02-24T00:18:11.105Z,7.20
2019-02-24T00:20:37.422Z,7.10
2019-02-24T00:23:03.723Z,7.20
2019-02-24T00:25:30.098Z,7.10
2019-02-24T00:27:56.329Z,7.20
2019-02-24T00:30:22.661Z,7.20
2019-02-24T00:32:48.935Z,7.10
2019-02-24T00:35:15.227Z,7.10
2019-02-24T00:37:41.646Z,7.10
2019-02-24T00:40:08.034Z,7.10
2019-02-24T00:42:34.410Z,7.10
2019-02-24T00:45:00.631Z,7.10
2019-02-24T00:47:26.928Z,7.00
2019-02-24T00:49:53.297Z,7.00
2019-02-24T00:52:19.529Z,7.00
2019-02-24T00:54:45.826Z,7.00
2019-02-24T00:57:12.107Z,7.00
2019-02-24T00:59:38.403Z,7.00
2019-02-24T01:02:04.728Z,6.90
2019-02-24T01:04:31.036Z,6.90
2019-02-24T01:06:57.404Z,6.90
2019-02-24T01:09:23.735Z,6.80
2019-02-24T01:11:50.065Z,6.80
2019-02-24T01:14:16.398Z,6.80
2019-02-24T01:16:42.725Z,6.80
2019-02-24T01:19:09.144Z,6.80
2019-02-24T01:21:35.439Z,6.80
2019-02-24T01:24:02.040Z,6.80
2019-02-24T01:26:28.459Z,6.80
2019-02-24T01:28:54.750Z,6.70
2019-02-24T01:31:21.045Z,6.70
2019-02-24T01:33:47.347Z,6.70
2019-02-24T01:36:13.674Z,6.70
2019-02-24T01:38:40.106Z,6.70
2019-02-24T01:41:06.364Z,6.70
2019-02-24T01:43:32.768Z,6.70
2019-02-24T01:45:58.996Z,6.70
2019-02-24T01:48:25.223Z,6.70
2019-02-24T01:50:51.534Z,6.70
2019-02-24T01:53:17.884Z,6.70
2019-02-24T01:55:44.113Z,6.70
2019-02-24T01:58:10.442Z,6.70
2019-02-24T02:00:36.691Z,6.70
2019-02-24T02:03:03.379Z,6.80
2019-02-24T02:05:29.741Z,6.70
2019-02-24T02:07:55.984Z,6.70
2019-02-24T02:10:22.271Z,6.80
2019-02-24T02:12:48.944Z,6.80
2019-02-24T02:15:15.266Z,6.80
2019-02-24T02:17:41.545Z,6.80
2019-02-24T02:20:08.235Z,6.70
2019-02-24T02:22:34.443Z,6.80
2019-02-24T02:25:00.727Z,6.70
2019-02-24T02:27:27.124Z,6.70
2019-02-24T02:29:53.339Z,6.70
2019-02-24T02:32:19.902Z,6.70
2019-02-24T02:34:46.320Z,6.60
2019-02-24T02:37:12.652Z,6.60
2019-02-24T02:39:39.081Z,6.60
2019-02-24T02:42:05.398Z,6.60
2019-02-24T02:44:31.846Z,6.60
2019-02-24T02:46:58.113Z,6.50
2019-02-24T02:49:25.381Z,6.50
2019-02-24T02:51:51.658Z,6.50
2019-02-24T02:54:17.909Z,6.40
2019-02-24T02:56:44.217Z,6.40
2019-02-24T02:59:10.542Z,6.40
2019-02-24T03:01:36.878Z,6.40
2019-02-24T03:04:03.204Z,6.30
2019-02-24T03:06:46.737Z,6.30
2019-02-24T03:09:12.989Z,6.30
2019-02-24T03:11:39.399Z,6.20
2019-02-24T03:14:05.679Z,6.20
2019-02-24T03:16:32.057Z,6.10
2019-02-24T03:18:58.313Z,6.10
2019-02-24T03:21:24.820Z,6.10
2019-02-24T03:23:51.152Z,6.10
2019-02-24T03:26:17.485Z,6.10
2019-02-24T03:28:43.739Z,6.00
2019-02-24T03:33:36.789Z,6.10
2019-02-24T03:36:03.022Z,6.00
2019-02-24T03:38:29.333Z,6.10
2019-02-24T03:40:55.667Z,6.10
2019-02-24T03:43:22.317Z,6.00
2019-02-24T03:45:48.603Z,6.00
2019-02-24T03:48:14.965Z,6.00
2019-02-24T03:50:41.295Z,6.10
2019-02-24T03:53:07.712Z,6.00
2019-02-24T03:55:34.105Z,6.00
2019-02-24T03:58:00.383Z,6.00
2019-02-24T04:00:27.069Z,6.00
2019-02-24T04:02:53.374Z,6.10
2019-02-24T04:05:19.789Z,6.10
2019-02-24T04:07:46.121Z,6.10
2019-02-24T04:10:12.501Z,6.10
2019-02-24T04:12:38.902Z,6.10
2019-02-24T04:15:05.217Z,6.10
2019-02-24T04:17:31.545Z,6.10
2019-02-24T04:19:57.875Z,6.10
2019-02-24T04:22:24.123Z,6.10
2019-02-24T04:24:50.537Z,6.10
2019-02-24T04:27:16.864Z,6.20
2019-02-24T04:29:43.203Z,6.10
2019-02-24T04:32:12.485Z,6.10
2019-02-24T04:34:38.827Z,6.10
2019-02-24T04:37:05.157Z,6.10
2019-02-24T04:39:31.487Z,6.10
2019-02-24T04:41:57.820Z,6.10
2019-02-24T04:44:24.154Z,6.10
2019-02-24T04:46:50.399Z,6.10
2019-02-24T04:49:17.098Z,6.10
2019-02-24T04:51:43.445Z,6.10
2019-02-24T04:54:09.776Z,6.10
2019-02-24T04:56:36.093Z,6.00
2019-02-24T04:59:02.434Z,6.00
2019-02-24T05:01:28.763Z,6.00
2019-02-24T05:03:56.759Z,6.00
2019-02-24T05:06:23.064Z,5.90
2019-02-24T05:08:49.333Z,5.90
2019-02-24T05:11:15.725Z,5.90
2019-02-24T05:13:42.053Z,5.80
2019-02-24T05:16:08.416Z,5.80
2019-02-24T05:18:34.817Z,5.80
2019-02-24T05:21:01.110Z,5.70
2019-02-24T05:23:27.430Z,5.70
2019-02-24T05:25:54.034Z,5.70
2019-02-24T05:28:20.333Z,5.60
2019-02-24T05:30:46.685Z,5.60
2019-02-24T05:33:14.667Z,5.50
2019-02-24T05:35:41.299Z,5.50
2019-02-24T05:38:07.938Z,5.40
2019-02-24T05:40:34.348Z,5.40
2019-02-24T05:43:01.007Z,5.30
2019-02-24T05:45:27.522Z,5.30
2019-02-24T05:47:53.802Z,5.20
2019-02-24T05:50:20.087Z,5.20
2019-02-24T05:52:46.416Z,5.20
2019-02-24T05:55:12.739Z,5.10
2019-02-24T05:57:39.072Z,5.00
2019-02-24T06:00:06.079Z,5.00
2019-02-24T06:02:32.383Z,5.00
2019-02-24T06:04:58.778Z,4.90
2019-02-24T06:07:25.115Z,4.90
2019-02-24T06:09:51.448Z,4.90
2019-02-24T06:12:17.739Z,4.80
2019-02-24T06:14:44.010Z,4.70
2019-02-24T06:17:10.431Z,4.70
2019-02-24T06:19:36.760Z,4.60
2019-02-24T06:22:04.682Z,4.60
2019-02-24T06:24:30.957Z,4.50
2019-02-24T06:26:57.287Z,4.40
2019-02-24T06:29:23.617Z,4.40
2019-02-24T06:31:49.973Z,4.40
2019-02-24T06:34:16.251Z,4.30
2019-02-24T06:36:42.555Z,4.30
2019-02-24T06:39:08.939Z,4.30
2019-02-24T06:41:35.150Z,4.20
2019-02-24T06:44:01.496Z,4.20
2019-02-24T06:46:28.822Z,4.20
2019-02-24T06:48:55.050Z,4.20
2019-02-24T06:51:21.408Z,4.10
2019-02-24T06:53:47.624Z,4.10
2019-02-24T06:56:13.928Z,4.10
2019-02-24T06:58:40.222Z,4.10
2019-02-24T07:01:06.552Z,4.10
2019-02-24T07:03:32.944Z,4.10
2019-02-24T07:05:59.284Z,4.10
2019-02-24T07:08:25.516Z,4.10
2019-02-24T07:10:51.824Z,4.10
2019-02-24T07:13:18.277Z,4.10
2019-02-24T07:15:44.506Z,4.10
2019-02-24T07:18:10.929Z,4.10
2019-02-24T07:20:37.207Z,4.20
2019-02-24T07:23:03.803Z,4.20
2019-02-24T07:25:30.026Z,4.30
2019-02-24T07:27:56.364Z,4.30
2019-02-24T07:30:23.681Z,4.40
2019-02-24T07:32:50.576Z,4.40
2019-02-24T07:35:16.893Z,4.50
2019-02-24T07:37:43.222Z,4.60
2019-02-24T07:40:09.552Z,4.60
2019-02-24T07:42:35.804Z,4.60
2019-02-24T07:45:03.643Z,4.70
2019-02-24T07:47:29.945Z,4.80
2019-02-24T07:49:56.303Z,4.80
2019-02-24T07:52:24.303Z,4.90
2019-02-24T07:54:50.551Z,5.00
2019-02-24T07:57:16.934Z,5.10
2019-02-24T07:59:43.263Z,5.20
2019-02-24T08:02:09.546Z,5.30
2019-02-24T08:04:35.838Z,5.40
2019-02-24T08:07:02.151Z,5.50
2019-02-24T08:09:28.485Z,5.60
2019-02-24T08:11:54.814Z,5.70
2019-02-24T08:14:21.057Z,5.80
2019-02-24T08:16:47.479Z,5.90
2019-02-24T08:19:13.803Z,6.10
2019-02-24T08:21:40.133Z,6.20
2019-02-24T08:24:06.674Z,6.30
2019-02-24T08:26:32.882Z,6.50
2019-02-24T08:29:00.860Z,6.60
2019-02-24T08:31:27.117Z,6.80
2019-02-24T08:33:53.444Z,6.90
2019-02-24T08:36:19.855Z,7.10
2019-02-24T08:38:46.127Z,7.20
2019-02-24T08:41:12.516Z,7.30
2019-02-24T08:43:39.104Z,7.50
2019-02-24T08:46:05.423Z,7.60
2019-02-24T08:48:31.714Z,7.80
2019-02-24T08:50:58.375Z,7.90
2019-02-24T08:53:26.323Z,8.00
2019-02-24T08:55:52.648Z,8.10
2019-02-24T08:58:19.192Z,8.20
2019-02-24T09:00:50.936Z,8.30
2019-02-24T09:03:13.620Z,8.50
2019-02-24T09:05:40.863Z,8.60
2019-02-24T09:08:07.117Z,8.70
2019-02-24T09:10:33.407Z,8.80
2019-02-24T09:12:59.697Z,8.90
2019-02-24T09:15:26.015Z,9.00
2019-02-24T09:17:52.299Z,9.10
2019-02-24T09:20:18.612Z,9.30
2019-02-24T09:22:44.943Z,9.30
2019-02-24T09:25:11.273Z,9.50
2019-02-24T09:27:37.505Z,9.60
2019-02-24T09:30:10.078Z,9.70
2019-02-24T09:32:36.364Z,9.80
2019-02-24T09:35:03.967Z,9.90
2019-02-24T09:37:30.303Z,10.00
2019-02-24T09:39:56.627Z,10.10
2019-02-24T09:42:22.842Z,10.20
2019-02-24T09:44:49.290Z,10.30
2019-02-24T09:47:17.289Z,10.40
2019-02-24T09:49:43.586Z,10.50
2019-02-24T09:52:10.240Z,10.70
2019-02-24T09:54:36.658Z,10.80
2019-02-24T09:57:03.320Z,10.80
2019-02-24T09:59:29.692Z,11.00
2019-02-24T10:01:56.011Z,11.10
2019-02-24T10:04:22.323Z,11.20
2019-02-24T10:06:48.719Z,11.30
2019-02-24T10:09:15.041Z,11.40
2019-02-24T10:11:41.316Z,11.50
2019-02-24T10:14:07.629Z,11.60
2019-02-24T10:16:34.256Z,11.80
2019-02-24T10:19:01.188Z,11.90
2019-02-24T10:21:27.519Z,12.00
2019-02-24T10:23:53.804Z,12.10
2019-02-24T10:26:20.106Z,12.20
2019-02-24T10:28:47.754Z,12.20
2019-02-24T10:31:19.756Z,12.40
2019-02-24T10:33:42.872Z,12.40
2019-02-24T10:36:22.482Z,12.50
2019-02-24T10:38:48.965Z,12.50
2019-02-24T10:41:15.363Z,12.70
2019-02-24T10:43:41.694Z,12.80
2019-02-24T10:46:08.024Z,12.90
2019-02-24T10:48:34.309Z,12.90
2019-02-24T10:51:00.598Z,13.00
2019-02-24T10:53:28.212Z,13.10
2019-02-24T10:55:54.733Z,13.20
2019-02-24T10:58:21.364Z,13.30
2019-02-24T11:00:47.908Z,13.40
2019-02-24T11:03:14.154Z,13.50
2019-02-24T11:05:40.455Z,13.60
2019-02-24T11:08:07.051Z,13.70
2019-02-24T11:10:33.324Z,13.70
2019-02-24T11:12:59.602Z,13.90
2019-02-24T11:15:26.034Z,13.90
2019-02-24T11:17:52.318Z,14.00
2019-02-24T11:20:18.606Z,14.00
2019-02-24T11:22:44.923Z,14.10
2019-02-24T11:25:11.869Z,14.20
2019-02-24T11:27:38.198Z,14.30
2019-02-24T11:30:08.435Z,14.40
2019-02-24T11:32:34.734Z,14.40
2019-02-24T11:35:01.083Z,14.50
2019-02-24T11:37:27.412Z,14.60
2019-02-24T11:39:53.621Z,14.60
2019-02-24T11:42:19.923Z,14.70
2019-02-24T11:44:46.203Z,14.70
2019-02-24T11:47:12.527Z,14.80
2019-02-24T11:49:38.809Z,14.90
2019-02-24T11:52:05.132Z,15.00
2019-02-24T11:54:31.417Z,15.00
2019-02-24T11:57:03.896Z,15.00
2019-02-24T11:59:30.194Z,15.30
2019-02-24T12:01:56.558Z,15.20
2019-02-24T12:04:22.783Z,15.20
2019-02-24T12:06:49.426Z,15.30
2019-02-24T12:09:15.667Z,15.40
2019-02-24T12:11:42.079Z,15.40
2019-02-24T12:14:08.511Z,15.50
2019-02-24T12:16:34.759Z,15.60
2019-02-24T12:19:01.171Z,15.60
2019-02-24T12:21:27.503Z,15.70
2019-02-24T12:23:53.779Z,15.80
2019-02-24T12:26:20.163Z,15.80
2019-02-24T12:28:46.495Z,15.90
2019-02-24T12:31:12.920Z,16.00
2019-02-24T12:33:39.201Z,16.10
2019-02-24T12:36:05.585Z,16.10
2019-02-24T12:38:32.017Z,16.20
2019-02-24T12:40:58.307Z,16.30
2019-02-24T12:43:24.677Z,16.30
2019-02-24T12:45:51.223Z,16.40
2019-02-24T12:48:17.581Z,16.50
2019-02-24T12:50:43.912Z,16.50
2019-02-24T12:53:10.314Z,16.60
2019-02-24T12:55:36.562Z,16.70
2019-02-24T12:58:03.302Z,16.70
2019-02-24T13:00:29.716Z,16.80
2019-02-24T13:02:56.047Z,16.90
2019-02-24T13:05:22.374Z,16.90
2019-02-24T13:07:48.809Z,16.90
2019-02-24T13:10:16.380Z,17.00
2019-02-24T13:12:43.039Z,17.10
2019-02-24T13:15:09.643Z,17.10
2019-02-24T13:17:36.067Z,17.20
2019-02-24T13:20:04.804Z,17.30
2019-02-24T13:22:31.195Z,17.30
2019-02-24T13:24:57.525Z,17.40
2019-02-24T13:27:23.955Z,17.40
2019-02-24T13:29:50.390Z,17.50
2019-02-24T13:32:16.821Z,17.60
2019-02-24T13:34:45.074Z,17.60
2019-02-24T13:37:11.739Z,17.70
2019-02-24T13:39:38.073Z,17.80
2019-02-24T13:42:04.498Z,17.80
2019-02-24T13:44:30.842Z,17.90
2019-02-24T13:46:57.159Z,18.00
2019-02-24T13:49:23.594Z,18.00
2019-02-24T13:51:50.024Z,18.10
2019-02-24T13:54:16.458Z,18.20
2019-02-24T13:56:42.786Z,18.20
2019-02-24T13:59:09.117Z,18.20
2019-02-24T14:01:35.552Z,18.20
2019-02-24T14:04:01.885Z,18.20
2019-02-24T14:06:28.208Z,18.30
2019-02-24T14:08:54.541Z,18.30
2019-02-24T14:11:20.914Z,18.30
2019-02-24T14:13:47.581Z,18.30
2019-02-24T14:16:13.944Z,18.30
2019-02-24T14:18:40.272Z,18.30
2019-02-24T14:21:06.568Z,18.30
2019-02-24T14:23:32.935Z,18.40
2019-02-24T14:25:59.316Z,18.40
2019-02-24T14:28:26.605Z,18.40
2019-02-24T14:30:52.913Z,18.40
2019-02-24T14:33:19.206Z,18.40
2019-02-24T14:35:45.609Z,18.50
2019-02-24T14:38:12.161Z,18.50
2019-02-24T14:40:38.573Z,18.50
2019-02-24T14:43:04.898Z,18.50
2019-02-24T14:45:31.237Z,18.60
2019-02-24T14:47:59.766Z,18.60
2019-02-24T14:50:25.943Z,18.60
2019-02-24T14:52:52.376Z,18.60
2019-02-24T14:55:18.665Z,18.60
2019-02-24T14:57:45.091Z,18.60
2019-02-24T15:00:19.387Z,18.60
2019-02-24T15:02:45.720Z,18.60
2019-02-24T15:05:13.290Z,18.60
2019-02-24T15:07:39.813Z,18.60
2019-02-24T15:10:11.570Z,18.60
2019-02-24T15:12:38.312Z,18.60
2019-02-24T15:15:08.735Z,18.50
2019-02-24T15:17:35.378Z,18.50
2019-02-24T15:20:01.933Z,18.50
2019-02-24T15:22:28.355Z,18.50
2019-02-24T15:24:54.889Z,18.40
2019-02-24T15:27:21.414Z,18.40
2019-02-24T15:29:47.844Z,18.40
2019-02-24T15:32:14.286Z,18.40
2019-02-24T15:34:40.613Z,18.40
2019-02-24T15:37:07.264Z,18.40
2019-02-24T15:39:33.684Z,18.40
2019-02-24T15:42:00.933Z,18.30
2019-02-24T15:44:27.597Z,18.30
2019-02-24T15:46:54.002Z,18.30
2019-02-24T15:49:20.315Z,18.30
2019-02-24T15:51:46.632Z,18.20
2019-02-24T15:54:13.185Z,18.20
2019-02-24T15:56:39.533Z,18.20
2019-02-24T15:59:09.041Z,18.20
2019-02-24T16:01:35.474Z,18.00
2019-02-24T16:04:01.906Z,18.10
2019-02-24T16:06:36.906Z,18.10
2019-02-24T16:08:56.622Z,18.00
2019-02-24T16:11:23.235Z,17.90
2019-02-24T16:13:49.684Z,17.90
2019-02-24T16:16:16.116Z,17.90
2019-02-24T16:18:42.549Z,17.80
2019-02-24T16:21:09.203Z,17.70
2019-02-24T16:23:35.612Z,17.60
2019-02-24T16:26:02.056Z,17.60
2019-02-24T16:28:28.384Z,17.50
2019-02-24T16:30:54.638Z,17.40
2019-02-24T16:33:20.954Z,17.30
2019-02-24T16:35:47.374Z,17.20
2019-02-24T16:38:13.810Z,17.10
2019-02-24T16:40:40.754Z,17.00
2019-02-24T16:43:07.157Z,17.00
2019-02-24T16:45:33.861Z,16.90
2019-02-24T16:48:00.256Z,16.80
2019-02-24T16:50:26.693Z,16.70
2019-02-24T16:52:53.128Z,16.70
2019-02-24T16:55:19.515Z,16.60
2019-02-24T16:57:45.844Z,16.50
2019-02-24T17:00:17.996Z,16.40
2019-02-24T17:02:44.382Z,16.40
2019-02-24T17:05:11.270Z,16.30
2019-02-24T17:07:37.566Z,16.20
2019-02-24T17:10:07.774Z,16.10
2019-02-24T17:12:34.428Z,15.90
2019-02-24T17:15:02.443Z,15.90
2019-02-24T17:17:28.817Z,15.70
2019-02-24T17:19:55.119Z,15.70
2019-02-24T17:22:21.484Z,15.60
2019-02-24T17:24:48.218Z,15.50
2019-02-24T17:27:14.484Z,15.30
2019-02-24T17:29:40.979Z,15.20
2019-02-24T17:32:07.371Z,15.10
2019-02-24T17:34:34.191Z,15.00
2019-02-24T17:37:00.397Z,14.90
2019-02-24T17:39:27.035Z,14.80
2019-02-24T17:41:53.328Z,14.70
2019-02-24T17:44:19.721Z,14.70
2019-02-24T17:46:46.158Z,14.60
2019-02-24T17:49:12.543Z,14.50
2019-02-24T17:51:38.882Z,14.40
2019-02-24T17:54:05.323Z,14.30
2019-02-24T17:56:31.634Z,14.20
2019-02-24T17:58:57.965Z,14.10
2019-02-24T18:01:24.296Z,14.00
2019-02-24T18:03:50.624Z,13.90
2019-02-24T18:06:16.903Z,13.80
2019-02-24T18:08:43.282Z,13.80
2019-02-24T18:11:09.835Z,13.70
2019-02-24T18:13:36.253Z,13.60
2019-02-24T18:16:02.583Z,13.50
2019-02-24T18:18:31.002Z,13.40
2019-02-24T18:20:57.395Z,13.30
2019-02-24T18:23:23.725Z,13.20
2019-02-24T18:25:50.057Z,13.10
2019-02-24T18:28:16.488Z,13.00
2019-02-24T18:30:42.936Z,13.00
2019-02-24T18:33:09.231Z,12.90
2019-02-24T18:35:35.594Z,12.80
2019-02-24T18:38:01.927Z,12.80
2019-02-24T18:40:28.357Z,12.70
2019-02-24T18:43:00.287Z,12.70
2019-02-24T18:45:24.977Z,12.60
2019-02-24T18:47:51.281Z,12.60
2019-02-24T18:50:18.956Z,12.50
2019-02-24T18:52:45.555Z,12.50
2019-02-24T18:55:12.717Z,12.40
2019-02-24T18:57:39.044Z,12.30
2019-02-24T19:00:09.143Z,12.30
2019-02-24T19:02:35.735Z,12.20
2019-02-24T19:05:03.476Z,12.10
2019-02-24T19:07:29.974Z,12.00
2019-02-24T19:09:56.411Z,11.90
2019-02-24T19:12:22.698Z,11.90
2019-02-24T19:14:49.068Z,11.80
2019-02-24T19:17:15.405Z,11.80
2019-02-24T19:19:41.728Z,11.70
2019-02-24T19:22:08.274Z,11.70
2019-02-24T19:24:34.492Z,11.60
2019-02-24T19:27:00.823Z,11.60
2019-02-24T19:29:27.475Z,11.60
2019-02-24T19:31:53.791Z,11.60
2019-02-24T19:34:20.443Z,11.50
2019-02-24T19:36:48.549Z,11.50
2019-02-24T19:39:14.845Z,11.50
2019-02-24T19:41:41.264Z,11.50
2019-02-24T19:44:07.555Z,11.40
2019-02-24T19:46:33.851Z,11.40
2019-02-24T19:49:00.254Z,11.40
2019-02-24T19:51:26.564Z,11.30
2019-02-24T19:53:57.605Z,11.30
2019-02-24T19:56:23.809Z,11.20
2019-02-24T19:58:50.102Z,11.10
2019-02-24T20:01:16.509Z,11.10
2019-02-24T20:03:42.846Z,11.10
2019-02-24T20:06:09.361Z,11.00
2019-02-24T20:08:35.708Z,11.00
2019-02-24T20:11:02.144Z,10.90
2019-02-24T20:13:28.694Z,10.90
2019-02-24T20:15:54.996Z,10.90
2019-02-24T20:18:21.336Z,10.90
2019-02-24T20:20:47.597Z,10.80
2019-02-24T20:23:13.999Z,10.80
2019-02-24T20:25:40.218Z,10.80
2019-02-24T20:28:06.558Z,10.70
2019-02-24T20:30:34.217Z,10.70
2019-02-24T20:33:00.477Z,10.70
2019-02-24T20:35:26.879Z,10.70
2019-02-24T20:37:53.212Z,10.70
2019-02-24T20:40:19.636Z,10.60
2019-02-24T20:42:46.283Z,10.60
2019-02-24T20:45:19.871Z,10.60
2019-02-24T20:47:46.352Z,10.60
2019-02-24T20:50:18.565Z,10.60
2019-02-24T20:52:44.911Z,10.60
2019-02-24T20:55:11.686Z,10.50
2019-02-24T20:57:37.982Z,10.50
2019-02-24T21:00:08.093Z,10.50
2019-02-24T21:02:34.422Z,10.50
2019-02-24T21:05:00.701Z,10.40
2019-02-24T21:07:27.009Z,10.40
2019-02-24T21:09:53.314Z,10.30
2019-02-24T21:12:19.623Z,10.30
2019-02-24T21:14:45.979Z,10.30
2019-02-24T21:17:12.309Z,10.20
2019-02-24T21:19:38.640Z,10.20
2019-02-24T21:22:04.979Z,10.20
2019-02-24T21:24:31.283Z,10.20
2019-02-24T21:26:57.582Z,10.20
2019-02-24T21:29:23.961Z,10.20
2019-02-24T21:31:50.190Z,10.10
2019-02-24T21:34:16.623Z,10.10
2019-02-24T21:36:42.949Z,10.10
2019-02-24T21:39:09.646Z,10.00
2019-02-24T21:41:36.245Z,10.00
2019-02-24T21:44:02.763Z,10.00
2019-02-24T21:46:29.195Z,10.00
2019-02-24T21:48:55.630Z,9.90
2019-02-24T21:51:23.043Z,9.90
2019-02-24T21:53:49.431Z,9.90
2019-02-24T21:56:15.647Z,9.90
2019-02-24T21:58:41.943Z,9.80
2019-02-24T22:01:08.305Z,9.80
2019-02-24T22:03:34.636Z,9.70
2019-02-24T22:06:01.069Z,9.70
2019-02-24T22:08:27.396Z,9.70
2019-02-24T22:10:53.990Z,9.70
2019-02-24T22:13:20.466Z,9.70
2019-02-24T22:15:46.843Z,9.70
2019-02-24T22:18:13.234Z,9.60
2019-02-24T22:20:39.553Z,9.60
2019-02-24T22:23:05.867Z,9.60
2019-02-24T22:25:32.221Z,9.50
2019-02-24T22:27:58.551Z,9.50
2019-02-24T22:30:24.983Z,9.40
2019-02-24T22:32:51.223Z,9.40
2019-02-24T22:35:17.645Z,9.40
2019-02-24T22:37:44.047Z,9.30
2019-02-24T22:40:11.533Z,9.30
2019-02-24T22:42:37.966Z,9.30
2019-02-24T22:45:08.538Z,9.20
2019-02-24T22:47:35.131Z,9.20
2019-02-24T22:50:01.466Z,9.10
2019-02-24T22:52:27.789Z,9.00
2019-02-24T22:54:54.123Z,9.00
2019-02-24T22:57:26.363Z,9.00
2019-02-24T22:59:52.735Z,9.10
2019-02-24T23:02:21.011Z,8.90
2019-02-24T23:04:47.332Z,8.90
2019-02-24T23:07:13.661Z,8.90
2019-02-24T23:09:40.195Z,8.80
2019-02-24T23:12:06.475Z,8.80
2019-02-24T23:14:32.856Z,8.70
2019-02-24T23:16:59.612Z,8.70
2019-02-24T23:19:25.896Z,8.70
2019-02-24T23:21:52.190Z,8.70
2019-02-24T23:24:18.479Z,8.60
2019-02-24T23:26:44.823Z,8.60
2019-02-24T23:29:11.147Z,8.50
2019-02-24T23:31:37.428Z,8.40
2019-02-24T23:34:03.943Z,8.40
2019-02-24T23:36:30.442Z,8.40
2019-02-24T23:38:56.737Z,8.30
2019-02-24T23:41:23.103Z,8.30
2019-02-24T23:43:50.227Z,8.20
2019-02-24T23:46:16.584Z,8.20
2019-02-24T23:48:42.914Z,8.10
2019-02-24T23:51:09.241Z,8.10
2019-02-24T23:53:35.574Z,8.10
2019-02-24T23:56:02.007Z,8.00
2019-02-24T23:58:28.651Z,8.00
